createdAt,value
2018-06-28T00:00:03.669Z,13.90
2018-06-28T00:02:32.895Z,13.90
2018-06-28T00:05:02.042Z,13.70
2018-06-28T00:07:31.253Z,13.60
2018-06-28T00:10:00.403Z,13.50
2018-06-28T00:12:29.597Z,13.50
2018-06-28T00:14:58.720Z,13.50
2018-06-28T00:17:27.843Z,13.50
2018-06-28T00:19:57.012Z,13.60
2018-06-28T00:22:26.167Z,13.60
2018-06-28T00:24:55.293Z,13.50
2018-06-28T00:27:24.466Z,13.50
2018-06-28T00:29:53.597Z,13.40
2018-06-28T00:32:25.576Z,13.40
2018-06-28T00:34:54.745Z,13.50
2018-06-28T00:37:23.859Z,13.50
2018-06-28T00:39:53.133Z,13.40
2018-06-28T00:42:22.949Z,13.40
2018-06-28T00:44:52.145Z,13.40
2018-06-28T00:47:21.424Z,13.50
2018-06-28T00:49:50.577Z,13.50
2018-06-28T00:52:19.809Z,13.40
2018-06-28T00:54:48.936Z,13.30
2018-06-28T00:57:18.114Z,13.30
2018-06-28T00:59:47.241Z,13.30
2018-06-28T01:02:16.411Z,13.30
2018-06-28T01:04:45.560Z,13.40
2018-06-28T01:07:14.671Z,13.40
2018-06-28T01:09:43.798Z,13.30
2018-06-28T01:12:13.036Z,13.20
2018-06-28T01:14:42.177Z,13.20
2018-06-28T01:17:11.333Z,13.20
2018-06-28T01:19:40.456Z,13.30
2018-06-28T01:22:09.604Z,13.30
2018-06-28T01:24:38.820Z,13.30
2018-06-28T01:27:07.983Z,13.30
2018-06-28T01:29:37.166Z,13.40
2018-06-28T01:32:06.436Z,13.50
2018-06-28T01:34:35.551Z,13.60
2018-06-28T01:37:05.514Z,13.60
2018-06-28T01:39:34.735Z,13.50
2018-06-28T01:42:14.973Z,13.40
2018-06-28T01:44:44.204Z,13.30
2018-06-28T01:47:13.426Z,13.30
2018-06-28T01:49:42.543Z,13.30
2018-06-28T01:52:11.677Z,13.40
2018-06-28T01:54:40.791Z,13.50
2018-06-28T01:57:09.939Z,13.40
2018-06-28T01:59:39.077Z,13.60
2018-06-28T02:02:08.265Z,13.50
2018-06-28T02:04:37.384Z,13.50
2018-06-28T02:07:06.674Z,13.30
2018-06-28T02:09:35.842Z,13.20
2018-06-28T02:12:05.089Z,13.20
2018-06-28T02:14:34.217Z,13.10
2018-06-28T02:17:03.368Z,13.10
2018-06-28T02:19:32.496Z,13.10
2018-06-28T02:22:01.648Z,13.00
2018-06-28T02:24:30.870Z,13.00
2018-06-28T02:27:00.112Z,12.90
2018-06-28T02:29:29.218Z,12.90
2018-06-28T02:31:58.373Z,12.90
2018-06-28T02:34:27.542Z,12.90
2018-06-28T02:37:03.304Z,12.90
2018-06-28T02:39:32.483Z,13.00
2018-06-28T02:42:01.624Z,13.00
2018-06-28T02:44:30.825Z,13.00
2018-06-28T02:47:00.003Z,13.00
2018-06-28T02:49:29.222Z,12.90
2018-06-28T02:51:59.527Z,12.90
2018-06-28T02:54:28.704Z,12.90
2018-06-28T02:56:57.886Z,12.90
2018-06-28T02:59:27.097Z,12.90
2018-06-28T03:01:56.244Z,12.90
2018-06-28T03:06:54.082Z,12.80
2018-06-28T03:09:23.317Z,12.80
2018-06-28T03:14:21.182Z,12.70
2018-06-28T03:16:50.392Z,12.60
2018-06-28T03:19:19.501Z,12.60
2018-06-28T03:24:17.628Z,12.70
2018-06-28T03:26:46.803Z,12.70
2018-06-28T03:29:15.980Z,12.80
2018-06-28T03:31:45.125Z,12.90
2018-06-28T03:34:14.284Z,13.00
2018-06-28T03:39:13.548Z,13.10
2018-06-28T03:41:42.875Z,13.20
2018-06-28T03:44:13.266Z,13.30
2018-06-28T03:46:42.804Z,13.30
2018-06-28T03:49:12.624Z,13.30
2018-06-28T03:51:41.826Z,13.30
2018-06-28T03:54:11.013Z,13.40
2018-06-28T03:56:40.186Z,13.40
2018-06-28T03:59:09.393Z,13.50
2018-06-28T04:01:38.545Z,13.50
2018-06-28T04:06:36.423Z,13.50
2018-06-28T04:09:09.321Z,13.50
2018-06-28T04:11:38.449Z,13.60
2018-06-28T04:14:07.700Z,13.70
2018-06-28T04:16:36.849Z,13.80
2018-06-28T04:19:06.287Z,13.80
2018-06-28T04:21:35.401Z,13.90
2018-06-28T04:24:04.714Z,13.90
2018-06-28T04:26:33.868Z,14.10
2018-06-28T04:29:03.096Z,14.10
2018-06-28T04:31:32.256Z,14.20
2018-06-28T04:34:01.474Z,14.30
2018-06-28T04:36:30.658Z,14.50
2018-06-28T04:38:59.803Z,14.60
2018-06-28T04:41:29.062Z,14.80
2018-06-28T04:43:58.359Z,14.90
2018-06-28T04:46:27.584Z,15.00
2018-06-28T04:48:56.870Z,15.10
2018-06-28T04:51:26.838Z,15.20
2018-06-28T04:53:56.916Z,15.30
2018-06-28T04:56:26.091Z,15.50
2018-06-28T04:58:55.288Z,15.60
2018-06-28T05:01:24.504Z,15.70
2018-06-28T05:03:54.244Z,15.80
2018-06-28T05:06:23.430Z,15.90
2018-06-28T05:08:52.599Z,16.10
2018-06-28T05:11:21.773Z,16.20
2018-06-28T05:13:51.067Z,16.30
2018-06-28T05:16:20.224Z,16.40
2018-06-28T05:18:49.406Z,16.60
2018-06-28T05:21:18.673Z,16.70
2018-06-28T05:23:47.896Z,16.80
2018-06-28T05:26:17.700Z,16.80
2018-06-28T05:28:46.945Z,16.90
2018-06-28T05:31:16.226Z,17.00
2018-06-28T05:33:45.350Z,17.10
2018-06-28T05:36:14.488Z,17.10
2018-06-28T05:38:43.669Z,17.20
2018-06-28T05:41:12.877Z,17.20
2018-06-28T05:43:42.083Z,17.30
2018-06-28T05:46:11.253Z,17.30
2018-06-28T05:48:40.383Z,17.40
2018-06-28T05:51:09.612Z,17.40
2018-06-28T05:53:38.780Z,17.60
2018-06-28T05:56:07.907Z,17.60
2018-06-28T05:58:37.061Z,17.60
2018-06-28T06:01:06.573Z,17.60
2018-06-28T06:03:35.763Z,17.80
2018-06-28T06:06:05.649Z,17.90
2018-06-28T06:08:34.877Z,18.00
2018-06-28T06:11:04.180Z,18.00
2018-06-28T06:13:33.411Z,18.10
2018-06-28T06:16:02.576Z,18.10
2018-06-28T06:18:31.746Z,18.30
2018-06-28T06:21:00.977Z,18.20
2018-06-28T06:23:30.316Z,18.40
2018-06-28T06:25:59.581Z,18.50
2018-06-28T06:28:28.609Z,18.50
2018-06-28T06:30:57.828Z,18.50
2018-06-28T06:33:26.985Z,18.70
2018-06-28T06:35:56.237Z,18.80
2018-06-28T06:38:25.512Z,18.80
2018-06-28T06:40:54.721Z,18.80
2018-06-28T06:43:23.930Z,19.00
2018-06-28T06:45:53.175Z,19.20
2018-06-28T06:48:22.305Z,19.30
2018-06-28T06:50:51.519Z,19.20
2018-06-28T06:53:20.683Z,19.10
2018-06-28T06:55:49.829Z,19.30
2018-06-28T06:58:19.030Z,19.40
2018-06-28T07:00:48.211Z,19.40
2018-06-28T07:03:17.380Z,19.50
2018-06-28T07:05:46.547Z,19.60
2018-06-28T07:08:15.847Z,19.60
2018-06-28T07:10:45.536Z,19.70
2018-06-28T07:13:14.740Z,19.70
2018-06-28T07:15:43.896Z,19.80
2018-06-28T07:18:13.129Z,19.80
2018-06-28T07:20:42.267Z,19.90
2018-06-28T07:23:11.464Z,19.90
2018-06-28T07:25:40.949Z,20.00
2018-06-28T07:28:10.111Z,20.00
2018-06-28T07:30:39.253Z,20.20
2018-06-28T07:33:08.445Z,20.30
2018-06-28T07:35:37.644Z,20.30
2018-06-28T07:38:06.927Z,20.40
2018-06-28T07:40:36.280Z,20.40
2018-06-28T07:43:05.459Z,20.50
2018-06-28T07:45:34.630Z,20.60
2018-06-28T07:48:03.916Z,20.70
2018-06-28T07:50:33.049Z,20.90
2018-06-28T07:53:02.222Z,21.00
2018-06-28T07:55:31.399Z,21.10
2018-06-28T07:58:00.535Z,21.10
2018-06-28T08:00:29.660Z,21.30
2018-06-28T08:02:58.843Z,21.20
2018-06-28T08:05:28.020Z,21.30
2018-06-28T08:07:57.241Z,21.30
2018-06-28T08:10:26.480Z,21.60
2018-06-28T08:12:55.625Z,21.60
2018-06-28T08:15:25.548Z,21.60
2018-06-28T08:17:54.651Z,21.60
2018-06-28T08:20:23.787Z,21.70
2018-06-28T08:22:52.984Z,21.80
2018-06-28T08:25:22.134Z,21.80
2018-06-28T08:27:51.339Z,21.80
2018-06-28T08:30:20.500Z,21.90
2018-06-28T08:32:49.672Z,22.00
2018-06-28T08:35:18.799Z,22.00
2018-06-28T08:37:47.941Z,22.00
2018-06-28T08:40:17.094Z,22.00
2018-06-28T08:42:46.335Z,22.00
2018-06-28T08:45:15.487Z,21.90
2018-06-28T08:47:45.259Z,22.00
2018-06-28T08:50:14.442Z,22.00
2018-06-28T08:52:43.644Z,22.20
2018-06-28T08:55:12.825Z,22.20
2018-06-28T08:57:42.073Z,22.20
2018-06-28T09:00:11.317Z,22.20
2018-06-28T09:02:40.460Z,22.20
2018-06-28T09:05:09.591Z,22.30
2018-06-28T09:07:39.372Z,22.50
2018-06-28T09:10:08.541Z,22.50
2018-06-28T09:12:37.952Z,22.60
2018-06-28T09:15:07.172Z,22.70
2018-06-28T09:17:42.841Z,22.90
2018-06-28T09:20:12.037Z,22.90
2018-06-28T09:22:41.271Z,22.90
2018-06-28T09:27:39.551Z,23.20
2018-06-28T09:30:09.049Z,23.30
2018-06-28T09:32:38.214Z,23.50
2018-06-28T09:35:07.462Z,23.50
2018-06-28T09:37:36.905Z,23.80
2018-06-28T09:40:06.164Z,23.80
2018-06-28T09:42:35.433Z,24.00
2018-06-28T09:45:05.573Z,24.10
2018-06-28T09:47:34.732Z,24.20
2018-06-28T09:50:04.505Z,24.30
2018-06-28T09:52:33.718Z,24.30
2018-06-28T09:55:02.901Z,24.60
2018-06-28T09:57:32.098Z,24.50
2018-06-28T10:00:01.391Z,24.60
2018-06-28T10:02:30.682Z,24.90
2018-06-28T10:04:59.853Z,24.90
2018-06-28T10:07:29.072Z,24.90
2018-06-28T10:09:58.243Z,24.90
2018-06-28T10:12:28.013Z,24.70
2018-06-28T10:14:57.329Z,24.80
2018-06-28T10:17:26.569Z,24.90
2018-06-28T10:19:55.706Z,24.90
2018-06-28T10:22:25.524Z,24.90
2018-06-28T10:25:01.451Z,24.80
2018-06-28T10:27:30.578Z,24.90
2018-06-28T10:29:59.873Z,24.80
2018-06-28T10:32:29.149Z,25.10
2018-06-28T10:34:58.388Z,25.30
2018-06-28T10:37:27.558Z,25.50
2018-06-28T10:39:56.687Z,25.70
2018-06-28T10:42:25.931Z,25.80
2018-06-28T10:44:55.601Z,25.70
2018-06-28T10:47:24.793Z,25.70
2018-06-28T10:49:54.015Z,25.60
2018-06-28T10:52:23.215Z,25.60
2018-06-28T10:54:52.697Z,25.60
2018-06-28T10:57:21.833Z,25.70
2018-06-28T10:59:51.018Z,25.80
2018-06-28T11:02:20.107Z,25.80
2018-06-28T11:04:49.373Z,25.90
2018-06-28T11:07:18.565Z,25.90
2018-06-28T11:09:47.759Z,26.00
2018-06-28T11:12:16.988Z,26.00
2018-06-28T11:14:46.169Z,26.10
2018-06-28T11:17:15.412Z,26.10
2018-06-28T11:19:44.569Z,26.50
2018-06-28T11:22:13.753Z,26.20
2018-06-28T11:24:42.876Z,26.30
2018-06-28T11:27:12.065Z,26.30
2018-06-28T11:29:41.288Z,26.40
2018-06-28T11:32:10.439Z,26.50
2018-06-28T11:34:39.625Z,26.40
2018-06-28T11:37:08.757Z,26.40
2018-06-28T11:39:38.013Z,26.30
2018-06-28T11:42:07.308Z,26.30
2018-06-28T11:44:36.500Z,26.30
2018-06-28T11:47:05.753Z,26.40
2018-06-28T11:49:34.984Z,26.10
2018-06-28T11:52:04.316Z,26.10
2018-06-28T11:54:33.449Z,26.00
2018-06-28T11:57:02.645Z,26.00
2018-06-28T11:59:31.951Z,26.10
2018-06-28T12:02:01.099Z,26.20
2018-06-28T12:04:30.223Z,26.30
2018-06-28T12:06:59.400Z,26.40
2018-06-28T12:09:28.582Z,26.30
2018-06-28T12:11:57.865Z,26.20
2018-06-28T12:14:26.985Z,26.30
2018-06-28T12:16:56.201Z,26.10
2018-06-28T12:19:25.498Z,26.40
2018-06-28T12:21:54.692Z,26.50
2018-06-28T12:24:23.842Z,26.60
2018-06-28T12:26:52.977Z,26.60
2018-06-28T12:29:22.141Z,26.40
2018-06-28T12:31:51.305Z,26.60
2018-06-28T12:34:20.460Z,26.50
2018-06-28T12:36:49.599Z,26.50
2018-06-28T12:39:18.753Z,26.50
2018-06-28T12:41:47.882Z,26.20
2018-06-28T12:44:17.068Z,26.50
2018-06-28T12:47:56.995Z,26.30
2018-06-28T12:50:26.177Z,26.30
2018-06-28T12:52:58.406Z,26.00
2018-06-28T12:55:31.920Z,26.10
2018-06-28T12:58:01.332Z,26.10
2018-06-28T13:00:30.605Z,26.20
2018-06-28T13:02:59.929Z,26.10
2018-06-28T13:05:30.740Z,26.00
2018-06-28T13:07:59.929Z,26.10
2018-06-28T13:10:29.087Z,26.20
2018-06-28T13:12:58.356Z,26.30
2018-06-28T13:15:27.605Z,25.90
2018-06-28T13:17:56.787Z,25.80
2018-06-28T13:20:26.006Z,25.90
2018-06-28T13:22:55.229Z,25.90
2018-06-28T13:25:24.443Z,26.10
2018-06-28T13:27:54.253Z,26.00
2018-06-28T13:30:23.792Z,26.20
2018-06-28T13:32:53.729Z,26.50
2018-06-28T13:35:22.914Z,26.50
2018-06-28T13:37:52.090Z,26.80
2018-06-28T13:40:21.238Z,26.80
2018-06-28T13:42:50.391Z,26.90
2018-06-28T13:45:19.568Z,27.10
2018-06-28T13:47:48.827Z,26.90
2018-06-28T13:50:18.006Z,26.80
2018-06-28T13:52:47.216Z,26.90
2018-06-28T13:55:16.348Z,26.90
2018-06-28T13:57:45.592Z,26.90
2018-06-28T14:00:14.754Z,26.90
2018-06-28T14:02:44.024Z,27.00
2018-06-28T14:05:13.286Z,26.70
2018-06-28T14:07:42.471Z,26.60
2018-06-28T14:10:11.696Z,26.50
2018-06-28T14:12:40.927Z,26.50
2018-06-28T14:15:10.125Z,26.50
2018-06-28T14:17:39.363Z,26.50
2018-06-28T14:20:09.493Z,26.50
2018-06-28T14:22:38.683Z,26.70
2018-06-28T14:25:07.911Z,26.80
2018-06-28T14:27:37.025Z,26.60
2018-06-28T14:30:07.514Z,26.50
2018-06-28T14:32:36.670Z,26.70
2018-06-28T14:35:06.109Z,26.60
2018-06-28T14:37:35.186Z,26.40
2018-06-28T14:40:05.053Z,26.30
2018-06-28T14:42:34.251Z,26.20
2018-06-28T14:50:01.551Z,26.50
2018-06-28T14:52:30.853Z,26.40
2018-06-28T14:55:00.037Z,26.40
2018-06-28T14:57:29.220Z,26.40
2018-06-28T14:59:58.332Z,26.40
2018-06-28T15:02:27.541Z,26.30
2018-06-28T15:04:56.709Z,26.60
2018-06-28T15:07:25.837Z,26.00
2018-06-28T15:09:54.958Z,25.60
2018-06-28T15:12:24.124Z,25.40
2018-06-28T15:14:53.299Z,25.60
2018-06-28T15:19:51.288Z,25.20
2018-06-28T15:22:20.449Z,25.40
2018-06-28T15:24:49.641Z,25.70
2018-06-28T15:27:19.005Z,25.70
2018-06-28T15:29:48.118Z,25.60
2018-06-28T15:32:17.406Z,25.50
2018-06-28T15:34:47.348Z,25.30
2018-06-28T15:37:16.535Z,25.30
2018-06-28T15:39:45.709Z,25.00
2018-06-28T15:42:14.987Z,24.80
2018-06-28T15:44:44.198Z,24.60
2018-06-28T15:47:13.519Z,24.40
2018-06-28T15:49:42.892Z,24.60
2018-06-28T15:52:12.037Z,24.90
2018-06-28T15:54:41.191Z,24.80
2018-06-28T15:59:39.101Z,25.20
2018-06-28T16:02:08.342Z,24.80
2018-06-28T16:04:38.210Z,24.70
2018-06-28T16:07:07.445Z,24.70
2018-06-28T16:09:36.661Z,24.50
2018-06-28T16:12:06.111Z,24.30
2018-06-28T16:14:35.267Z,24.20
2018-06-28T16:17:04.531Z,24.00
2018-06-28T16:19:33.647Z,23.90
2018-06-28T16:22:02.819Z,23.50
2018-06-28T16:24:31.950Z,23.50
2018-06-28T16:27:01.705Z,23.40
2018-06-28T16:29:30.880Z,23.20
2018-06-28T16:32:00.066Z,23.20
2018-06-28T16:34:29.231Z,23.30
2018-06-28T16:36:58.375Z,23.40
2018-06-28T16:39:28.129Z,23.30
2018-06-28T16:41:57.326Z,23.40
2018-06-28T16:44:26.486Z,23.40
2018-06-28T16:46:55.719Z,23.00
2018-06-28T16:49:24.871Z,23.10
2018-06-28T16:51:54.079Z,23.00
2018-06-28T16:54:23.283Z,22.90
2018-06-28T16:56:52.420Z,22.80
2018-06-28T16:59:21.574Z,22.60
2018-06-28T17:01:50.684Z,22.90
2018-06-28T17:04:19.880Z,22.70
2018-06-28T17:06:49.056Z,22.60
2018-06-28T17:09:18.249Z,22.60
2018-06-28T17:11:47.369Z,22.70
2018-06-28T17:14:16.536Z,22.80
2018-06-28T17:16:45.676Z,22.70
2018-06-28T17:19:15.728Z,22.50
2018-06-28T17:21:44.916Z,22.50
2018-06-28T17:24:14.072Z,22.40
2018-06-28T17:26:43.245Z,22.30
2018-06-28T17:29:12.391Z,22.20
2018-06-28T17:31:41.993Z,22.20
2018-06-28T17:34:11.225Z,21.90
2018-06-28T17:36:47.055Z,21.80
2018-06-28T17:39:16.224Z,21.60
2018-06-28T17:41:45.377Z,21.50
2018-06-28T17:44:14.568Z,21.50
2018-06-28T17:46:43.845Z,21.40
2018-06-28T17:49:13.008Z,21.40
2018-06-28T17:51:42.161Z,21.30
2018-06-28T17:54:11.371Z,21.40
2018-06-28T17:56:40.498Z,21.50
2018-06-28T17:59:09.706Z,21.50
2018-06-28T18:01:39.801Z,21.30
2018-06-28T18:04:09.086Z,21.40
2018-06-28T18:06:38.270Z,21.60
2018-06-28T18:09:08.823Z,21.70
2018-06-28T18:11:38.897Z,21.50
2018-06-28T18:14:08.434Z,21.40
2018-06-28T18:16:37.841Z,21.30
2018-06-28T18:19:07.039Z,21.10
2018-06-28T18:21:36.246Z,20.90
2018-06-28T18:24:05.667Z,20.90
2018-06-28T18:26:34.896Z,20.80
2018-06-28T18:29:04.167Z,20.70
2018-06-28T18:31:33.591Z,20.80
2018-06-28T18:34:02.789Z,20.80
2018-06-28T18:36:31.932Z,21.00
2018-06-28T18:39:01.107Z,21.00
2018-06-28T18:41:30.326Z,20.80
2018-06-28T18:43:59.730Z,20.60
2018-06-28T18:46:28.888Z,20.50
2018-06-28T18:48:58.022Z,20.20
2018-06-28T18:51:27.222Z,20.10
2018-06-28T18:53:56.393Z,20.10
2018-06-28T18:56:25.656Z,20.00
2018-06-28T18:58:54.854Z,20.00
2018-06-28T19:01:24.071Z,19.80
2018-06-28T19:03:53.276Z,19.80
2018-06-28T19:06:22.434Z,19.90
2018-06-28T19:08:51.613Z,19.80
2018-06-28T19:11:20.771Z,19.10
2018-06-28T19:13:55.273Z,18.60
2018-06-28T19:16:29.715Z,18.20
2018-06-28T19:18:58.882Z,17.90
2018-06-28T19:21:33.427Z,17.70
2018-06-28T19:24:02.659Z,17.70
2018-06-28T19:26:31.908Z,17.50
2018-06-28T19:29:05.377Z,17.30
2018-06-28T19:31:40.055Z,17.10
2018-06-28T19:34:09.212Z,16.90
2018-06-28T19:36:38.511Z,16.80
2018-06-28T19:39:14.265Z,16.80
2018-06-28T19:41:48.807Z,16.70
2018-06-28T19:44:17.998Z,16.70
2018-06-28T19:46:47.190Z,16.70
2018-06-28T19:49:21.609Z,16.70
2018-06-28T19:51:56.129Z,16.60
2018-06-28T19:54:25.297Z,16.60
2018-06-28T19:56:54.546Z,16.60
2018-06-28T19:59:23.796Z,16.50
2018-06-28T20:01:58.356Z,16.40
2018-06-28T20:04:33.535Z,16.30
2018-06-28T20:07:02.687Z,16.20
2018-06-28T20:09:32.000Z,16.00
2018-06-28T20:12:01.129Z,15.90
2018-06-28T20:14:35.601Z,15.70
2018-06-28T20:17:10.057Z,15.60
2018-06-28T20:19:44.588Z,15.40
2018-06-28T20:22:13.746Z,15.30
2018-06-28T20:27:16.962Z,15.10
2018-06-28T20:29:52.024Z,15.00
2018-06-28T20:32:26.644Z,14.90
2018-06-28T20:34:55.863Z,14.80
2018-06-28T20:37:24.984Z,14.70
2018-06-28T20:39:54.124Z,14.70
2018-06-28T20:42:23.944Z,14.60
2018-06-28T20:44:53.096Z,14.60
2018-06-28T20:47:22.229Z,14.60
2018-06-28T20:49:51.422Z,14.50
2018-06-28T20:52:20.581Z,14.50
2018-06-28T20:54:49.728Z,14.60
2018-06-28T20:57:18.977Z,14.60
2018-06-28T20:59:48.141Z,14.40
2018-06-28T21:02:17.303Z,14.20
2018-06-28T21:04:46.498Z,14.10
2018-06-28T21:07:15.672Z,14.10
2018-06-28T21:09:44.818Z,14.10
2018-06-28T21:12:13.968Z,14.20
2018-06-28T21:14:43.220Z,14.10
2018-06-28T21:17:12.419Z,14.10
2018-06-28T21:19:41.560Z,14.10
2018-06-28T21:22:10.743Z,14.10
2018-06-28T21:24:39.865Z,14.10
2018-06-28T21:27:08.992Z,14.10
2018-06-28T21:29:38.157Z,14.20
2018-06-28T21:32:07.363Z,14.20
2018-06-28T21:34:36.514Z,14.10
2018-06-28T21:37:05.715Z,13.90
2018-06-28T21:39:36.456Z,13.90
2018-06-28T21:42:05.927Z,13.80
2018-06-28T21:44:35.265Z,13.70
2018-06-28T21:47:04.700Z,13.70
2018-06-28T21:49:33.944Z,13.70
2018-06-28T21:52:03.118Z,13.70
2018-06-28T21:54:32.260Z,13.70
2018-06-28T21:57:01.443Z,13.60
2018-06-28T21:59:30.799Z,13.60
2018-06-28T22:01:59.972Z,13.50
2018-06-28T22:04:29.104Z,13.50
2018-06-28T22:06:58.224Z,13.50
2018-06-28T22:09:27.999Z,13.40
2018-06-28T22:11:57.441Z,13.40
2018-06-28T22:14:26.624Z,13.50
2018-06-28T22:16:55.773Z,13.60
2018-06-28T22:19:25.359Z,13.70
2018-06-28T22:21:54.489Z,13.70
2018-06-28T22:24:23.684Z,13.50
2018-06-28T22:26:52.822Z,13.40
2018-06-28T22:29:21.970Z,13.20
2018-06-28T22:31:51.132Z,13.10
2018-06-28T22:34:20.229Z,12.90
2018-06-28T22:36:49.393Z,12.90
2018-06-28T22:39:18.904Z,12.70
2018-06-28T22:41:48.033Z,12.70
2018-06-28T22:44:17.248Z,12.60
2018-06-28T22:46:46.393Z,12.70
2018-06-28T22:49:15.543Z,12.80
2018-06-28T22:51:44.699Z,13.00
2018-06-28T22:54:13.812Z,13.10
2018-06-28T22:56:42.974Z,13.30
2018-06-28T22:59:12.206Z,13.40
2018-06-28T23:01:41.415Z,13.40
2018-06-28T23:06:39.300Z,13.60
2018-06-28T23:09:09.104Z,13.70
2018-06-28T23:11:38.253Z,13.70
2018-06-28T23:14:07.428Z,13.70
2018-06-28T23:16:36.599Z,13.70
2018-06-28T23:19:06.352Z,13.70
2018-06-28T23:21:36.251Z,13.70
2018-06-28T23:24:05.571Z,13.60
2018-06-28T23:26:34.740Z,13.40
2018-06-28T23:29:03.937Z,13.30
2018-06-28T23:31:33.086Z,13.20
2018-06-28T23:36:31.063Z,13.00
2018-06-28T23:39:00.169Z,12.90
2018-06-28T23:41:29.498Z,12.90
2018-06-28T23:43:58.693Z,12.90
2018-06-28T23:46:28.316Z,13.10
2018-06-28T23:48:57.437Z,13.30
2018-06-28T23:51:26.537Z,13.40
2018-06-28T23:53:55.744Z,13.50
2018-06-28T23:56:24.897Z,13.40
2018-06-28T23:58:54.192Z,13.20
